createdAt,value
2017-12-19T00:02:12.192Z,16.17
2017-12-19T00:04:38.464Z,15.52
2017-12-19T00:07:04.725Z,15.85
2017-12-19T00:09:31.026Z,16.45
2017-12-19T00:11:57.269Z,14.57
2017-12-19T00:14:23.559Z,17.40
2017-12-19T00:16:49.857Z,16.73
2017-12-19T00:19:16.473Z,16.23
2017-12-19T00:21:43.492Z,18.17
2017-12-19T00:24:09.800Z,17.92
2017-12-19T00:26:36.095Z,16.55
2017-12-19T00:29:02.396Z,16.23
2017-12-19T00:31:28.694Z,17.08
2017-12-19T00:33:54.993Z,17.45
2017-12-19T00:36:21.289Z,19.08
2017-12-19T00:38:47.852Z,16.70
2017-12-19T00:41:14.146Z,17.90
2017-12-19T00:43:40.409Z,16.50
2017-12-19T00:46:07.420Z,18.12
2017-12-19T00:48:33.690Z,17.12
2017-12-19T00:51:00.272Z,17.52
2017-12-19T00:53:26.549Z,18.00
2017-12-19T00:55:52.868Z,16.15
2017-12-19T00:58:19.138Z,16.73
2017-12-19T01:00:45.402Z,17.65
2017-12-19T01:03:11.708Z,17.05
2017-12-19T01:05:37.969Z,16.37
2017-12-19T01:08:04.361Z,15.60
2017-12-19T01:10:30.612Z,18.10
2017-12-19T01:12:56.875Z,17.87
2017-12-19T01:15:23.201Z,17.40
2017-12-19T01:17:49.502Z,17.42
2017-12-19T01:20:15.779Z,17.35
2017-12-19T01:22:42.086Z,20.37
2017-12-19T01:25:08.668Z,17.30
2017-12-19T01:27:34.943Z,15.70
2017-12-19T01:30:01.195Z,17.67
2017-12-19T01:32:27.487Z,17.67
2017-12-19T01:34:53.723Z,18.17
2017-12-19T01:37:20.725Z,17.92
2017-12-19T01:39:46.970Z,17.15
2017-12-19T01:42:13.543Z,16.75
2017-12-19T01:44:39.814Z,16.20
2017-12-19T01:47:06.098Z,15.48
2017-12-19T01:49:32.384Z,15.45
2017-12-19T01:51:59.391Z,17.37
2017-12-19T01:54:25.656Z,16.95
2017-12-19T01:56:51.933Z,16.30
2017-12-19T01:59:19.300Z,15.02
2017-12-19T02:01:46.354Z,17.60
2017-12-19T02:04:13.366Z,17.90
2017-12-19T02:06:39.640Z,17.48
2017-12-19T02:09:05.913Z,17.70
2017-12-19T02:11:32.443Z,17.67
2017-12-19T02:13:59.442Z,17.35
2017-12-19T02:16:25.741Z,16.58
2017-12-19T02:18:52.776Z,17.98
2017-12-19T02:21:19.071Z,16.58
2017-12-19T02:23:45.358Z,17.58
2017-12-19T02:26:11.650Z,18.08
2017-12-19T02:28:38.218Z,17.35
2017-12-19T02:31:04.518Z,17.08
2017-12-19T02:33:31.545Z,18.83
2017-12-19T02:35:57.886Z,17.42
2017-12-19T02:38:24.210Z,15.88
2017-12-19T02:40:51.242Z,17.80
2017-12-19T02:43:20.197Z,15.80
2017-12-19T02:45:46.499Z,17.10
2017-12-19T02:48:12.795Z,17.00
2017-12-19T02:50:39.052Z,16.40
2017-12-19T02:53:06.084Z,16.00
2017-12-19T02:55:32.394Z,17.75
2017-12-19T02:57:58.999Z,17.70
2017-12-19T03:00:26.248Z,17.75
2017-12-19T03:02:52.535Z,16.42
2017-12-19T03:05:18.828Z,16.35
2017-12-19T03:07:45.115Z,17.25
2017-12-19T03:10:11.694Z,15.50
2017-12-19T03:12:37.977Z,16.20
2017-12-19T03:15:04.257Z,16.45
2017-12-19T03:17:30.565Z,15.60
2017-12-19T03:19:57.597Z,16.45
2017-12-19T03:22:24.185Z,17.12
2017-12-19T03:24:50.448Z,17.37
2017-12-19T03:27:16.764Z,16.00
2017-12-19T03:29:43.808Z,17.00
2017-12-19T03:32:10.117Z,16.20
2017-12-19T03:34:36.720Z,16.15
2017-12-19T03:37:03.734Z,16.83
2017-12-19T03:39:30.050Z,15.77
2017-12-19T03:41:56.361Z,17.58
2017-12-19T03:44:23.371Z,16.87
2017-12-19T03:46:49.942Z,17.05
2017-12-19T03:49:16.238Z,16.02
2017-12-19T03:51:42.556Z,15.00
2017-12-19T03:54:08.848Z,16.15
2017-12-19T03:56:35.146Z,15.88
2017-12-19T03:59:01.719Z,16.00
2017-12-19T04:01:27.974Z,17.58
2017-12-19T04:03:54.249Z,17.50
2017-12-19T04:06:20.572Z,17.40
2017-12-19T04:08:46.885Z,14.98
2017-12-19T04:11:13.489Z,16.20
2017-12-19T04:13:40.524Z,17.25
2017-12-19T04:16:06.795Z,16.77
2017-12-19T04:18:33.104Z,16.50
2017-12-19T04:20:59.387Z,17.95
2017-12-19T04:23:26.414Z,15.82
2017-12-19T04:25:52.708Z,15.70
2017-12-19T04:28:19.283Z,15.55
2017-12-19T04:30:45.571Z,15.98
2017-12-19T04:33:11.892Z,16.20
2017-12-19T04:35:38.179Z,16.98
2017-12-19T04:38:05.220Z,18.58
2017-12-19T04:40:32.284Z,15.60
2017-12-19T04:42:59.343Z,17.83
2017-12-19T04:45:26.704Z,16.73
2017-12-19T04:47:53.746Z,16.17
2017-12-19T04:50:20.041Z,17.02
2017-12-19T04:52:47.125Z,16.15
2017-12-19T04:55:13.413Z,16.50
2017-12-19T04:57:40.447Z,16.83
2017-12-19T05:00:06.748Z,15.75
2017-12-19T05:02:33.045Z,13.90
2017-12-19T05:04:59.342Z,13.80
2017-12-19T05:07:25.713Z,15.15
2017-12-19T05:09:52.018Z,14.60
2017-12-19T05:12:19.064Z,14.98
2017-12-19T05:14:45.364Z,14.90
2017-12-19T05:17:11.665Z,15.20
2017-12-19T05:19:37.948Z,15.52
2017-12-19T05:22:04.244Z,17.02
2017-12-19T05:24:30.529Z,21.80
2017-12-19T05:26:56.865Z,16.50
2017-12-19T05:29:23.143Z,17.40
2017-12-19T05:31:50.181Z,15.55
2017-12-19T05:34:17.248Z,16.15
2017-12-19T05:36:44.272Z,16.98
2017-12-19T05:39:10.568Z,16.85
2017-12-19T05:41:36.847Z,16.60
2017-12-19T05:44:03.425Z,16.23
2017-12-19T05:46:29.744Z,16.27
2017-12-19T05:48:56.011Z,20.20
2017-12-19T05:51:22.300Z,24.45
2017-12-19T05:53:48.598Z,19.50
2017-12-19T05:56:14.893Z,16.23
2017-12-19T05:58:41.173Z,15.85
2017-12-19T06:01:07.460Z,14.18
2017-12-19T06:03:33.761Z,15.50
2017-12-19T06:06:00.082Z,15.98
2017-12-19T06:08:26.416Z,15.40
2017-12-19T06:10:52.736Z,16.15
2017-12-19T06:13:19.026Z,15.10
2017-12-19T06:15:45.616Z,15.30
2017-12-19T06:18:11.924Z,14.63
2017-12-19T06:20:38.232Z,16.92
2017-12-19T06:23:04.560Z,16.02
2017-12-19T06:25:30.890Z,13.65
2017-12-19T06:27:57.212Z,15.00
2017-12-19T06:30:24.251Z,16.35
2017-12-19T06:32:50.536Z,13.98
2017-12-19T06:35:16.850Z,17.62
2017-12-19T06:37:44.040Z,14.52
2017-12-19T06:40:10.378Z,18.08
2017-12-19T06:42:36.707Z,17.08
2017-12-19T06:45:03.718Z,18.23
2017-12-19T06:47:30.022Z,17.65
2017-12-19T06:49:57.089Z,17.08
2017-12-19T06:52:23.393Z,15.50
2017-12-19T06:54:49.709Z,16.20
2017-12-19T06:57:16.068Z,18.12
2017-12-19T06:59:42.382Z,17.20
2017-12-19T07:02:08.681Z,14.82
2017-12-19T07:04:35.717Z,15.77
2017-12-19T07:07:02.018Z,19.98
2017-12-19T07:09:28.355Z,24.90
2017-12-19T07:11:55.409Z,62.28
2017-12-19T07:14:21.748Z,54.03
2017-12-19T07:16:48.055Z,36.72
2017-12-19T07:19:14.366Z,26.62
2017-12-19T07:21:40.687Z,19.23
2017-12-19T07:24:06.982Z,19.52
2017-12-19T07:26:33.268Z,16.17
2017-12-19T07:28:59.597Z,17.80
2017-12-19T07:31:25.920Z,19.87
2017-12-19T07:33:52.990Z,19.90
2017-12-19T07:36:20.022Z,18.27
2017-12-19T07:38:46.361Z,16.85
2017-12-19T07:41:12.686Z,16.98
2017-12-19T07:43:38.963Z,18.50
2017-12-19T07:46:05.267Z,18.27
2017-12-19T07:48:31.531Z,20.12
2017-12-19T07:50:58.156Z,20.83
2017-12-19T07:53:25.113Z,20.25
2017-12-19T07:55:51.446Z,19.60
2017-12-19T07:58:17.793Z,19.50
2017-12-19T08:00:44.065Z,18.02
2017-12-19T08:03:10.456Z,14.82
2017-12-19T08:05:36.725Z,16.45
2017-12-19T08:08:03.052Z,15.48
2017-12-19T08:10:29.347Z,15.90
2017-12-19T08:12:55.653Z,15.27
2017-12-19T08:15:22.001Z,16.02
2017-12-19T08:17:48.328Z,15.43
2017-12-19T08:20:14.627Z,17.42
2017-12-19T08:22:41.704Z,17.08
2017-12-19T08:25:07.988Z,17.15
2017-12-19T08:27:34.289Z,15.82
2017-12-19T08:30:00.605Z,19.10
2017-12-19T08:32:26.904Z,17.05
2017-12-19T08:34:53.165Z,15.93
2017-12-19T08:37:19.417Z,16.58
2017-12-19T08:39:45.708Z,15.93
2017-12-19T08:42:11.989Z,18.12
2017-12-19T08:44:38.590Z,17.05
2017-12-19T08:47:04.856Z,16.80
2017-12-19T08:49:31.119Z,15.35
2017-12-19T08:51:57.418Z,14.82
2017-12-19T08:54:23.679Z,15.20
2017-12-19T08:56:50.000Z,16.02
2017-12-19T08:59:16.252Z,15.30
2017-12-19T09:01:42.556Z,15.35
2017-12-19T09:04:08.840Z,16.55
2017-12-19T09:06:35.122Z,15.80
2017-12-19T09:09:01.399Z,15.38
2017-12-19T09:11:27.679Z,16.23
2017-12-19T09:13:53.974Z,15.13
2017-12-19T09:16:20.992Z,16.25
2017-12-19T09:18:47.265Z,15.35
2017-12-19T09:21:14.645Z,15.57
2017-12-19T09:23:41.673Z,17.02
2017-12-19T09:26:07.932Z,16.40
2017-12-19T09:28:34.205Z,15.13
2017-12-19T09:31:00.484Z,15.15
2017-12-19T09:33:26.814Z,16.23
2017-12-19T09:35:53.064Z,15.25
2017-12-19T09:38:19.342Z,16.00
2017-12-19T09:40:45.643Z,15.43
2017-12-19T09:43:11.925Z,15.80
2017-12-19T09:45:38.209Z,15.57
2017-12-19T09:48:04.495Z,15.02
2017-12-19T09:50:30.759Z,15.93
2017-12-19T09:52:57.783Z,16.30
2017-12-19T09:55:24.059Z,15.48
2017-12-19T09:57:51.103Z,15.73
2017-12-19T10:00:17.360Z,17.85
2017-12-19T10:02:44.393Z,15.25
2017-12-19T10:05:10.645Z,15.85
2017-12-19T10:07:36.907Z,17.25
2017-12-19T10:10:03.934Z,17.70
2017-12-19T10:12:30.214Z,19.27
2017-12-19T10:14:56.490Z,15.02
2017-12-19T10:17:22.764Z,15.77
2017-12-19T10:19:49.094Z,16.85
2017-12-19T10:22:15.376Z,16.92
2017-12-19T10:24:42.419Z,15.32
2017-12-19T10:27:09.479Z,15.35
2017-12-19T10:29:36.508Z,14.87
2017-12-19T10:32:02.789Z,15.00
2017-12-19T10:34:29.848Z,16.02
2017-12-19T10:36:56.937Z,15.85
2017-12-19T10:39:23.201Z,15.20
2017-12-19T10:41:49.492Z,14.85
2017-12-19T10:44:16.533Z,17.25
2017-12-19T10:46:42.830Z,16.50
2017-12-19T10:49:09.113Z,17.30
2017-12-19T10:51:35.376Z,15.85
2017-12-19T10:54:02.432Z,15.27
2017-12-19T10:56:29.422Z,18.40
2017-12-19T10:58:55.705Z,17.33
2017-12-19T11:01:21.984Z,18.52
2017-12-19T11:03:48.285Z,17.17
2017-12-19T11:06:14.530Z,17.58
2017-12-19T11:08:40.819Z,17.30
2017-12-19T11:11:07.063Z,18.08
2017-12-19T11:13:33.361Z,17.73
2017-12-19T11:15:59.596Z,17.55
2017-12-19T11:18:25.858Z,17.33
2017-12-19T11:20:52.863Z,15.95
2017-12-19T11:23:19.165Z,17.10
2017-12-19T11:25:46.544Z,16.42
2017-12-19T11:28:13.597Z,14.90
2017-12-19T11:30:40.640Z,15.15
2017-12-19T11:33:06.934Z,16.27
2017-12-19T11:35:33.246Z,16.02
2017-12-19T11:37:59.564Z,15.45
2017-12-19T11:40:25.863Z,15.90
2017-12-19T11:42:52.905Z,14.98
2017-12-19T11:45:19.189Z,15.25
2017-12-19T11:47:45.501Z,14.25
2017-12-19T11:50:11.789Z,15.18
2017-12-19T11:52:38.075Z,15.27
2017-12-19T11:55:04.621Z,15.32
2017-12-19T11:57:30.914Z,16.42
2017-12-19T11:59:57.198Z,15.65
2017-12-19T12:02:23.514Z,14.73
2017-12-19T12:04:50.544Z,15.80
2017-12-19T12:07:16.871Z,16.83
2017-12-19T12:09:43.156Z,16.77
2017-12-19T12:12:09.430Z,17.12
2017-12-19T12:14:35.765Z,15.07
2017-12-19T12:17:02.097Z,15.60
2017-12-19T12:19:28.390Z,15.82
2017-12-19T12:21:54.670Z,14.95
2017-12-19T12:24:22.036Z,15.50
2017-12-19T12:26:49.056Z,16.27
2017-12-19T12:29:15.315Z,13.90
2017-12-19T12:31:41.635Z,14.20
2017-12-19T12:34:07.933Z,14.55
2017-12-19T12:36:34.974Z,13.52
2017-12-19T12:39:01.280Z,15.23
2017-12-19T12:41:27.840Z,14.35
2017-12-19T12:43:54.168Z,16.15
2017-12-19T12:46:20.439Z,14.50
2017-12-19T12:48:46.726Z,15.45
2017-12-19T12:51:12.994Z,14.32
2017-12-19T12:53:39.280Z,14.23
2017-12-19T12:56:06.307Z,13.77
2017-12-19T12:58:32.903Z,14.87
2017-12-19T13:00:59.197Z,14.23
2017-12-19T13:03:25.508Z,14.73
2017-12-19T13:05:51.816Z,16.20
2017-12-19T13:08:18.853Z,16.08
2017-12-19T13:10:45.136Z,15.75
2017-12-19T13:13:11.388Z,14.82
2017-12-19T13:15:37.684Z,14.15
2017-12-19T13:18:04.000Z,14.60
2017-12-19T13:20:30.264Z,13.85
2017-12-19T13:22:56.782Z,13.15
2017-12-19T13:25:23.033Z,15.20
2017-12-19T13:27:49.352Z,14.48
2017-12-19T13:30:15.640Z,13.18
2017-12-19T13:32:41.903Z,12.50
2017-12-19T13:35:08.478Z,12.93
2017-12-19T13:37:34.777Z,16.20
2017-12-19T13:40:01.036Z,13.18
2017-12-19T13:42:28.060Z,12.35
2017-12-19T13:44:54.331Z,12.32
2017-12-19T13:47:21.361Z,12.65
2017-12-19T13:49:47.627Z,13.65
2017-12-19T13:52:14.626Z,13.20
2017-12-19T13:54:40.945Z,13.10
2017-12-19T13:57:07.958Z,13.52
2017-12-19T13:59:34.539Z,14.50
2017-12-19T14:02:01.535Z,13.55
2017-12-19T14:04:27.811Z,13.93
2017-12-19T14:06:54.088Z,13.75
2017-12-19T14:09:21.122Z,14.18
2017-12-19T14:11:47.384Z,15.05
2017-12-19T14:14:14.407Z,16.33
2017-12-19T14:16:40.703Z,13.68
2017-12-19T14:19:06.988Z,12.85
2017-12-19T14:21:33.292Z,13.80
2017-12-19T14:23:59.570Z,15.75
2017-12-19T14:26:25.839Z,15.13
2017-12-19T14:28:52.873Z,15.13
2017-12-19T14:31:19.137Z,14.65
2017-12-19T14:33:45.401Z,15.48
2017-12-19T14:36:12.384Z,14.90
2017-12-19T14:38:38.996Z,15.50
2017-12-19T14:41:06.021Z,16.08
2017-12-19T14:43:32.284Z,15.27
2017-12-19T14:45:58.555Z,15.10
2017-12-19T14:48:24.826Z,16.02
2017-12-19T14:50:51.092Z,14.27
2017-12-19T14:53:17.364Z,15.48
2017-12-19T14:55:44.520Z,17.45
2017-12-19T14:58:11.517Z,15.18
2017-12-19T15:00:37.820Z,16.23
2017-12-19T15:03:04.846Z,15.85
2017-12-19T15:05:31.099Z,15.85
2017-12-19T15:07:57.388Z,16.60
2017-12-19T15:10:23.682Z,17.27
2017-12-19T15:12:50.740Z,16.42
2017-12-19T15:15:17.010Z,17.83
2017-12-19T15:17:44.094Z,17.90
2017-12-19T15:20:11.094Z,17.30
2017-12-19T15:22:37.351Z,16.75
2017-12-19T15:25:03.924Z,16.00
2017-12-19T15:27:30.899Z,17.60
2017-12-19T15:29:57.140Z,17.37
2017-12-19T15:32:23.499Z,17.70
2017-12-19T15:34:49.771Z,18.92
2017-12-19T15:37:16.067Z,16.27
2017-12-19T15:39:42.341Z,17.23
2017-12-19T15:42:09.237Z,17.17
2017-12-19T15:44:36.287Z,18.50
2017-12-19T15:47:02.601Z,19.98
2017-12-19T15:49:28.929Z,18.83
2017-12-19T15:51:57.038Z,19.33
2017-12-19T15:54:24.138Z,19.83
2017-12-19T15:56:51.146Z,21.27
2017-12-19T15:59:17.425Z,18.90
2017-12-19T16:01:44.484Z,18.85
2017-12-19T16:04:11.504Z,19.10
2017-12-19T16:06:37.936Z,22.55
2017-12-19T16:09:04.238Z,20.08
2017-12-19T16:11:31.246Z,21.23
2017-12-19T16:13:57.558Z,19.35
2017-12-19T16:16:23.883Z,18.00
2017-12-19T16:18:50.920Z,20.83
2017-12-19T16:21:17.215Z,22.67
2017-12-19T16:23:43.460Z,21.05
2017-12-19T16:26:09.763Z,20.50
2017-12-19T16:28:36.773Z,18.98
2017-12-19T16:31:03.055Z,17.73
2017-12-19T16:33:29.331Z,20.05
2017-12-19T16:35:55.613Z,18.27
2017-12-19T16:38:21.899Z,18.77
2017-12-19T16:40:48.182Z,20.62
2017-12-19T16:43:14.526Z,20.60
2017-12-19T16:45:40.852Z,18.98
2017-12-19T16:48:07.140Z,18.52
2017-12-19T16:50:33.410Z,19.80
2017-12-19T16:52:59.667Z,20.33
2017-12-19T16:55:25.971Z,20.70
2017-12-19T16:57:52.224Z,20.02
2017-12-19T17:00:19.256Z,21.42
2017-12-19T17:02:45.552Z,19.77
2017-12-19T17:05:11.838Z,20.58
2017-12-19T17:07:38.174Z,19.85
2017-12-19T17:10:04.494Z,20.35
2017-12-19T17:12:30.777Z,19.62
2017-12-19T17:14:57.060Z,21.30
2017-12-19T17:17:24.076Z,21.17
2017-12-19T17:19:50.362Z,24.58
2017-12-19T17:22:16.628Z,21.15
2017-12-19T17:24:42.900Z,20.50
2017-12-19T17:27:09.200Z,22.13
2017-12-19T17:29:35.477Z,22.20
2017-12-19T17:32:01.742Z,22.15
2017-12-19T17:34:28.729Z,20.50
2017-12-19T17:36:55.347Z,21.48
2017-12-19T17:39:22.361Z,21.90
2017-12-19T17:41:48.672Z,23.60
2017-12-19T17:44:14.959Z,23.00
2017-12-19T17:46:41.234Z,23.27
2017-12-19T17:49:08.268Z,22.80
2017-12-19T17:51:34.588Z,23.23
2017-12-19T17:54:01.232Z,24.10
2017-12-19T17:56:27.545Z,24.87
2017-12-19T17:58:53.855Z,24.17
2017-12-19T18:01:20.177Z,28.15
2017-12-19T18:03:46.504Z,25.60
2017-12-19T18:06:12.839Z,26.50
2017-12-19T18:08:39.140Z,23.23
2017-12-19T18:11:05.432Z,22.52
2017-12-19T18:13:31.743Z,22.37
2017-12-19T18:15:58.062Z,23.12
2017-12-19T18:18:25.076Z,20.80
2017-12-19T18:20:51.439Z,19.48
2017-12-19T18:23:17.775Z,22.87
2017-12-19T18:25:44.079Z,22.50
2017-12-19T18:28:10.396Z,21.08
2017-12-19T18:30:37.465Z,21.58
2017-12-19T18:33:03.908Z,22.05
2017-12-19T18:35:30.266Z,21.45
2017-12-19T18:37:56.595Z,20.25
2017-12-19T18:40:23.638Z,21.00
2017-12-19T18:42:50.006Z,22.90
2017-12-19T18:45:16.350Z,22.90
2017-12-19T18:47:42.705Z,23.05
2017-12-19T18:50:09.076Z,21.05
2017-12-19T18:52:35.483Z,22.98
2017-12-19T18:55:01.829Z,21.23
2017-12-19T18:57:28.214Z,21.95
2017-12-19T18:59:54.556Z,22.87
2017-12-19T19:02:21.143Z,23.23
2017-12-19T19:04:47.554Z,22.87
2017-12-19T19:07:13.888Z,21.98
2017-12-19T19:09:40.225Z,22.73
2017-12-19T19:12:06.602Z,23.08
2017-12-19T19:14:33.702Z,22.77
2017-12-19T19:17:00.117Z,24.65
2017-12-19T19:19:27.229Z,23.40
2017-12-19T19:21:53.591Z,21.40
2017-12-19T19:24:20.058Z,23.45
2017-12-19T19:26:47.225Z,23.30
2017-12-19T19:29:14.284Z,20.65
2017-12-19T19:31:41.357Z,21.50
2017-12-19T19:34:11.532Z,21.27
2017-12-19T19:36:38.044Z,22.80
2017-12-19T19:39:04.443Z,22.58
2017-12-19T19:41:30.757Z,21.48
2017-12-19T19:43:57.145Z,19.83
2017-12-19T19:46:23.516Z,20.42
2017-12-19T19:48:49.910Z,22.00
2017-12-19T19:51:16.285Z,21.35
2017-12-19T19:53:43.488Z,19.87
2017-12-19T19:56:09.853Z,22.10
2017-12-19T19:58:36.246Z,20.17
2017-12-19T20:01:03.705Z,22.85
2017-12-19T20:03:30.836Z,21.45
2017-12-19T20:05:57.191Z,20.62
2017-12-19T20:08:23.601Z,22.08
2017-12-19T20:10:50.025Z,19.70
2017-12-19T20:13:16.387Z,20.35
2017-12-19T20:15:42.774Z,23.75
2017-12-19T20:18:09.232Z,21.35
2017-12-19T20:20:35.613Z,22.10
2017-12-19T20:23:02.015Z,21.92
2017-12-19T20:25:28.428Z,23.75
2017-12-19T20:27:55.645Z,22.58
2017-12-19T20:32:56.481Z,21.58
2017-12-19T20:35:22.867Z,24.30
2017-12-19T20:37:49.230Z,22.40
2017-12-19T20:40:15.634Z,23.23
2017-12-19T20:42:42.814Z,23.17
2017-12-19T20:45:09.910Z,25.33
2017-12-19T20:47:36.312Z,24.58
2017-12-19T20:50:03.399Z,23.00
2017-12-19T20:52:29.799Z,25.27
2017-12-19T20:54:56.499Z,23.55
2017-12-19T20:57:22.960Z,22.62
2017-12-19T20:59:50.084Z,25.48
2017-12-19T21:02:17.208Z,28.52
2017-12-19T21:04:43.572Z,23.60
2017-12-19T21:07:10.004Z,24.67
2017-12-19T21:09:37.380Z,22.50
2017-12-19T21:12:03.800Z,21.35
2017-12-19T21:14:30.141Z,21.35
2017-12-19T21:16:56.463Z,20.80
2017-12-19T21:19:22.796Z,21.52
2017-12-19T21:21:49.193Z,22.85
2017-12-19T21:24:15.535Z,23.48
2017-12-19T21:26:41.854Z,22.70
2017-12-19T21:29:08.170Z,22.25
2017-12-19T21:31:34.500Z,22.58
2017-12-19T21:34:00.799Z,20.62
2017-12-19T21:36:27.093Z,21.12
2017-12-19T21:38:53.409Z,21.73
2017-12-19T21:41:19.686Z,23.08
2017-12-19T21:43:45.948Z,21.58
2017-12-19T21:46:12.224Z,21.92
2017-12-19T21:48:38.557Z,23.62
2017-12-19T21:51:04.838Z,21.83
2017-12-19T21:53:31.190Z,21.20
2017-12-19T21:55:57.498Z,24.87
2017-12-19T21:58:23.783Z,24.98
2017-12-19T22:00:50.072Z,21.73
2017-12-19T22:03:16.405Z,22.70
2017-12-19T22:05:42.682Z,23.00
2017-12-19T22:08:09.721Z,23.75
2017-12-19T22:10:36.108Z,23.70
2017-12-19T22:13:02.369Z,23.05
2017-12-19T22:15:28.645Z,23.95
2017-12-19T22:17:54.924Z,24.98
2017-12-19T22:20:21.163Z,24.92
2017-12-19T22:22:47.438Z,24.95
2017-12-19T22:25:13.723Z,24.45
2017-12-19T22:27:40.718Z,24.10
2017-12-19T22:30:07.011Z,24.85
2017-12-19T22:32:34.026Z,25.45
2017-12-19T22:35:00.305Z,27.50
2017-12-19T22:37:26.554Z,24.50
2017-12-19T22:39:52.804Z,25.10
2017-12-19T22:42:19.790Z,25.50
2017-12-19T22:44:46.072Z,24.85
2017-12-19T22:47:12.335Z,25.67
2017-12-19T22:49:38.600Z,25.50
2017-12-19T22:52:05.620Z,25.00
2017-12-19T22:54:31.895Z,23.87
2017-12-19T22:56:58.913Z,25.70
2017-12-19T22:59:25.194Z,24.42
2017-12-19T23:01:52.213Z,24.73
2017-12-19T23:04:18.467Z,24.98
2017-12-19T23:06:44.784Z,24.35
2017-12-19T23:09:11.106Z,25.25
2017-12-19T23:11:37.388Z,26.05
2017-12-19T23:14:03.631Z,26.17
2017-12-19T23:16:29.923Z,27.60
2017-12-19T23:18:56.195Z,24.35
2017-12-19T23:21:22.487Z,28.27
2017-12-19T23:23:49.489Z,26.90
2017-12-19T23:26:15.768Z,30.12
2017-12-19T23:28:41.993Z,27.85
2017-12-19T23:31:08.292Z,28.62
2017-12-19T23:33:34.553Z,29.05
2017-12-19T23:36:00.823Z,28.98
2017-12-19T23:38:27.135Z,30.02
2017-12-19T23:40:53.399Z,29.35
2017-12-19T23:43:19.675Z,27.58
2017-12-19T23:45:46.683Z,27.98
2017-12-19T23:48:12.979Z,30.15
2017-12-19T23:50:39.979Z,28.62
2017-12-19T23:53:07.006Z,28.08
2017-12-19T23:55:33.254Z,26.62
2017-12-19T23:57:59.525Z,27.62
